Huvudsida
METAR-TAF:

METAR-TAF

Flygplatser :

Martinique Aimé Césaires internationella flygplats

Fort-de-France, Martinique

latitud: 14-36N, longitud: 061-00W, höjd: 5 m

Aktuellt väderrapport

Denna rapport gjordes för 7 minuter sedan, klockan 13:00 UTC
Vind 14 kt från ost
Temperatur 29°C
Fuktighet 74%
Tryck 1013 hPa
Sikt 10 km eller mer
Få moln på en höjd av 2800 ft

METAR: TFFF 121300Z AUTO 10014KT 9999 FEW028 29/24 Q1013

Tid: 09:07 (13:07 UTC)

Väderprognos

Denna rapport gjordes för 20 timmar och 7 minuter sedan, klockan 17:00 UTC
Prognos gäller från 11 kl. 18 UTC till 12 kl. 18 UTC
Vind 10 kt från ost
Sikt 10 km eller mer
Spridda moln på en höjd av 3000 ft
Temporärt
från 11 kl. 18 UTC till 11 kl. 21 UTC
Vind 15 kt från ost i byarna ända upp till 25 kt

TAF: TFFF 111700Z 1118/1218 08010KT 9999 SCT030 TEMPO 1118/1121 08015G25KT

Aktuella väderrapporter och prognoser från 4000 flygplatser (METAR- och TAF-rapporter).

De tillgängliga stationerna syns som gula och röda prickar på kartan.

För musen över prickarna för att se namnen på stationerna.

Klicka sedan för att få väderrapporter och prognoser.

För att ändra kartan: Klicka på de gröna knapparna med ett svart kors på för att zooma in; den gröna knappen med ett streck på för att zooma ut; eller på de gröna pilarna för angränsande kartor.


METAR-TAF: